createdAt,value
2023-05-13T00:00:51.648Z,14.78
2023-05-13T00:05:53.084Z,14.57
2023-05-13T00:10:54.506Z,14.58
2023-05-13T00:15:55.898Z,14.41
2023-05-13T00:20:57.288Z,14.54
2023-05-13T00:25:59.329Z,14.40
2023-05-13T00:31:00.664Z,14.57
2023-05-13T00:36:02.234Z,14.49
2023-05-13T00:41:03.958Z,14.48
2023-05-13T00:46:06.094Z,14.53
2023-05-13T00:51:07.767Z,14.47
2023-05-13T00:56:09.161Z,14.65
2023-05-13T01:01:19.735Z,14.77
2023-05-13T01:06:32.649Z,14.57
2023-05-13T01:11:39.974Z,14.60
2023-05-13T01:16:53.309Z,14.47
2023-05-13T01:21:55.570Z,14.61
2023-05-13T01:26:58.101Z,14.33
2023-05-13T01:32:00.633Z,14.33
2023-05-13T01:37:03.224Z,14.26
2023-05-13T01:42:04.860Z,14.30
2023-05-13T01:47:06.503Z,14.60
2023-05-13T01:52:07.976Z,14.56
2023-05-13T01:57:09.468Z,14.28
2023-05-13T02:02:10.991Z,14.25
2023-05-13T02:07:12.398Z,13.87
2023-05-13T02:12:13.792Z,13.76
2023-05-13T02:17:15.226Z,13.74
2023-05-13T02:22:17.559Z,14.18
2023-05-13T02:27:20.634Z,13.90
2023-05-13T02:32:22.307Z,13.81
2023-05-13T02:37:24.645Z,13.57
2023-05-13T02:42:34.107Z,13.51
2023-05-13T02:47:36.170Z,13.50
2023-05-13T02:52:40.047Z,13.58
2023-05-13T02:57:42.743Z,13.51
2023-05-13T03:02:44.263Z,13.90
2023-05-13T03:07:45.993Z,13.49
2023-05-13T03:12:47.396Z,13.46
2023-05-13T03:17:48.827Z,13.68
2023-05-13T03:22:50.413Z,13.46
2023-05-13T03:27:51.868Z,13.53
2023-05-13T03:32:56.404Z,13.73
2023-05-13T03:37:57.970Z,13.51
2023-05-13T03:43:00.282Z,13.49
2023-05-13T03:48:03.630Z,13.72
2023-05-13T03:53:05.286Z,13.65
2023-05-13T03:58:12.747Z,13.75
2023-05-13T04:03:16.089Z,13.99
2023-05-13T04:08:17.785Z,13.84
2023-05-13T04:13:19.230Z,14.11
2023-05-13T04:18:21.107Z,13.84
2023-05-13T04:23:22.538Z,13.64
2023-05-13T04:28:24.019Z,13.52
2023-05-13T04:33:27.202Z,13.71
2023-05-13T04:38:28.594Z,13.66
2023-05-13T04:43:29.965Z,13.63
2023-05-13T04:48:33.219Z,13.74
2023-05-13T04:53:35.305Z,13.57
2023-05-13T04:58:39.640Z,13.69
2023-05-13T05:03:42.587Z,13.91
2023-05-13T05:08:44.444Z,13.80
2023-05-13T05:13:45.845Z,13.93
2023-05-13T05:18:51.043Z,13.83
2023-05-13T05:23:52.668Z,13.90
2023-05-13T05:28:54.636Z,14.03
2023-05-13T05:33:56.368Z,14.04
2023-05-13T05:38:57.814Z,14.31
2023-05-13T05:44:05.768Z,14.24
2023-05-13T05:49:08.226Z,14.38
2023-05-13T05:54:10.850Z,14.35
2023-05-13T05:59:13.197Z,14.49
2023-05-13T06:04:14.859Z,14.70
2023-05-13T06:09:16.903Z,14.69
2023-05-13T06:14:18.340Z,14.58
2023-05-13T06:19:19.703Z,14.89
2023-05-13T06:24:21.123Z,14.92
2023-05-13T06:29:22.506Z,15.14
2023-05-13T06:34:23.853Z,15.14
2023-05-13T06:39:25.352Z,15.27
2023-05-13T06:44:26.726Z,15.42
2023-05-13T06:49:29.625Z,15.37
2023-05-13T06:54:32.029Z,15.65
2023-05-13T06:59:33.490Z,15.48
2023-05-13T07:04:35.019Z,15.63
2023-05-13T07:09:36.336Z,15.53
2023-05-13T07:14:37.845Z,15.62
2023-05-13T07:19:39.264Z,15.81
2023-05-13T07:24:41.727Z,15.80
2023-05-13T07:29:43.093Z,15.92
2023-05-13T07:34:44.465Z,15.96
2023-05-13T07:39:45.818Z,16.08
2023-05-13T07:44:47.224Z,16.05
2023-05-13T07:49:49.185Z,16.26
2023-05-13T07:54:50.611Z,16.68
2023-05-13T07:59:53.539Z,16.85
2023-05-13T08:04:55.006Z,17.09
2023-05-13T08:09:56.514Z,17.48
2023-05-13T08:14:57.968Z,17.72
2023-05-13T08:20:00.570Z,17.79
2023-05-13T08:25:03.266Z,18.01
2023-05-13T08:30:05.352Z,18.31
2023-05-13T08:35:06.955Z,18.43
2023-05-13T08:40:09.960Z,18.04
2023-05-13T08:45:12.182Z,18.31
2023-05-13T08:50:14.033Z,18.68
2023-05-13T08:55:15.555Z,19.10
2023-05-13T09:00:18.485Z,19.40
2023-05-13T09:05:22.124Z,19.59
2023-05-13T09:10:23.855Z,19.61
2023-05-13T09:15:26.520Z,19.96
2023-05-13T09:20:28.640Z,20.10
2023-05-13T09:25:30.570Z,20.21
2023-05-13T09:30:36.169Z,20.35
2023-05-13T09:35:38.494Z,20.23
2023-05-13T09:40:40.201Z,20.62
2023-05-13T09:45:41.935Z,20.85
2023-05-13T09:50:50.497Z,20.93
2023-05-13T09:55:53.122Z,21.17
2023-05-13T10:00:54.811Z,21.46
2023-05-13T10:05:56.740Z,21.12
2023-05-13T10:10:58.773Z,20.94
2023-05-13T10:16:00.357Z,20.95
2023-05-13T10:21:01.950Z,21.32
2023-05-13T10:26:03.782Z,21.32
2023-05-13T10:31:05.213Z,21.47
2023-05-13T10:36:13.036Z,21.99
2023-05-13T10:41:33.414Z,22.17
2023-05-13T10:46:35.361Z,21.81
2023-05-13T10:51:36.758Z,21.75
2023-05-13T10:56:38.128Z,21.85
2023-05-13T11:01:47.086Z,22.28
2023-05-13T11:06:49.691Z,22.29
2023-05-13T11:11:54.340Z,22.57
2023-05-13T11:17:04.624Z,22.42
2023-05-13T11:22:05.978Z,22.29
2023-05-13T11:27:17.384Z,22.36
2023-05-13T11:32:37.878Z,22.61
2023-05-13T11:37:43.192Z,22.69
2023-05-13T11:42:45.202Z,22.68
2023-05-13T11:47:46.779Z,22.86
2023-05-13T11:52:52.696Z,22.79
2023-05-13T11:57:54.188Z,22.69
2023-05-13T12:02:55.971Z,22.97
2023-05-13T12:07:58.035Z,23.08
2023-05-13T12:12:59.564Z,23.21
2023-05-13T12:18:01.104Z,23.24
2023-05-13T12:23:02.799Z,23.48
2023-05-13T12:28:10.179Z,23.71
2023-05-13T12:33:18.717Z,23.53
2023-05-13T12:38:21.659Z,23.40
2023-05-13T12:43:23.095Z,23.93
2023-05-13T12:48:25.433Z,24.17
2023-05-13T12:53:27.250Z,23.15
2023-05-13T12:58:28.673Z,23.04
2023-05-13T13:03:30.223Z,23.04
2023-05-13T13:08:31.755Z,23.52
2023-05-13T13:13:33.471Z,23.30
2023-05-13T13:18:35.326Z,22.57
2023-05-13T13:23:36.702Z,21.93
2023-05-13T13:28:38.030Z,21.72
2023-05-13T13:33:39.388Z,21.57
2023-05-13T13:38:40.819Z,21.66
2023-05-13T13:43:42.156Z,22.44
2023-05-13T13:48:43.572Z,22.38
2023-05-13T13:53:44.927Z,22.31
2023-05-13T13:58:46.275Z,22.94
2023-05-13T14:03:49.904Z,22.83
2023-05-13T14:08:51.813Z,21.83
2023-05-13T14:13:53.133Z,21.35
2023-05-13T14:18:54.550Z,21.27
2023-05-13T14:23:55.974Z,22.08
2023-05-13T14:28:57.454Z,22.52
2023-05-13T14:33:58.822Z,22.67
2023-05-13T14:39:00.233Z,22.35
2023-05-13T14:44:01.747Z,22.05
2023-05-13T14:49:03.161Z,21.34
2023-05-13T14:54:04.677Z,21.26
2023-05-13T14:59:06.031Z,20.98
2023-05-13T15:04:07.385Z,20.73
2023-05-13T15:09:08.804Z,20.92
2023-05-13T15:14:10.221Z,20.99
2023-05-13T15:19:11.620Z,20.81
2023-05-13T15:24:13.014Z,20.75
2023-05-13T15:29:14.359Z,20.72
2023-05-13T15:34:15.838Z,20.70
2023-05-13T15:39:17.193Z,20.80
2023-05-13T15:44:18.978Z,21.36
2023-05-13T15:49:20.332Z,21.52
2023-05-13T15:54:21.696Z,21.95
2023-05-13T15:59:23.064Z,22.08
2023-05-13T16:04:24.433Z,21.50
2023-05-13T16:09:25.953Z,20.68
2023-05-13T16:14:27.476Z,19.76
2023-05-13T16:19:28.844Z,18.77
2023-05-13T16:24:30.208Z,18.47
2023-05-13T16:29:31.561Z,18.26
2023-05-13T16:34:32.898Z,18.28
2023-05-13T16:39:34.299Z,18.44
2023-05-13T16:44:35.728Z,18.62
2023-05-13T16:49:37.117Z,18.40
2023-05-13T16:54:38.578Z,18.45
2023-05-13T16:59:39.970Z,18.27
2023-05-13T17:04:41.344Z,18.24
2023-05-13T17:09:42.709Z,18.29
2023-05-13T17:14:44.115Z,18.10
2023-05-13T17:19:45.592Z,18.41
2023-05-13T17:24:46.900Z,18.41
2023-05-13T17:29:48.318Z,18.37
2023-05-13T17:34:49.698Z,18.45
2023-05-13T17:39:51.239Z,18.43
2023-05-13T17:44:52.702Z,18.42
2023-05-13T17:49:54.165Z,18.48
2023-05-13T17:54:55.661Z,18.42
2023-05-13T17:59:57.751Z,18.10
2023-05-13T18:04:59.454Z,18.10
2023-05-13T18:10:00.934Z,18.08
2023-05-13T18:15:02.391Z,18.19
2023-05-13T18:20:03.915Z,17.98
2023-05-13T18:25:06.172Z,18.04
2023-05-13T18:30:07.881Z,18.15
2023-05-13T18:35:09.562Z,17.55
2023-05-13T18:40:11.168Z,17.82
2023-05-13T18:45:12.552Z,17.78
2023-05-13T18:50:13.938Z,17.42
2023-05-13T18:55:15.409Z,17.47
2023-05-13T19:00:17.672Z,17.49
2023-05-13T19:05:20.533Z,17.18
2023-05-13T19:10:22.267Z,17.05
2023-05-13T19:15:25.152Z,16.99
2023-05-13T19:20:26.939Z,17.34
2023-05-13T19:25:28.371Z,17.23
2023-05-13T19:30:29.782Z,17.28
2023-05-13T19:35:34.413Z,17.28
2023-05-13T19:40:35.942Z,17.30
2023-05-13T19:45:37.375Z,17.33
2023-05-13T19:50:39.412Z,17.16
2023-05-13T19:55:41.182Z,17.15
2023-05-13T20:00:43.912Z,16.99
2023-05-13T20:05:46.384Z,16.82
2023-05-13T20:10:47.812Z,16.84
2023-05-13T20:15:49.256Z,16.81
2023-05-13T20:20:51.502Z,16.81
2023-05-13T20:26:02.097Z,16.63
2023-05-13T20:31:03.694Z,16.54
2023-05-13T20:36:06.479Z,16.52
2023-05-13T20:41:07.906Z,16.28
2023-05-13T20:46:12.673Z,16.17
2023-05-13T20:51:14.068Z,16.33
2023-05-13T20:56:15.448Z,16.29
2023-05-13T21:01:16.889Z,16.24
2023-05-13T21:06:18.280Z,16.02
2023-05-13T21:11:19.657Z,15.87
2023-05-13T21:16:21.100Z,15.80
2023-05-13T21:21:22.550Z,15.63
2023-05-13T21:26:24.298Z,15.74
2023-05-13T21:31:25.747Z,15.83
2023-05-13T21:36:27.110Z,15.82
2023-05-13T21:41:28.444Z,15.70
2023-05-13T21:46:29.805Z,15.66
2023-05-13T21:51:32.569Z,15.80
2023-05-13T21:56:33.934Z,15.57
2023-05-13T22:01:35.319Z,15.84
2023-05-13T22:06:36.676Z,15.90
2023-05-13T22:11:38.015Z,15.78
2023-05-13T22:16:39.481Z,15.82
2023-05-13T22:21:40.950Z,15.85
2023-05-13T22:26:43.552Z,15.97
2023-05-13T22:31:44.956Z,15.86
2023-05-13T22:36:46.345Z,15.81
2023-05-13T22:41:47.839Z,15.78
2023-05-13T22:46:49.369Z,15.74
2023-05-13T22:51:51.118Z,15.75
2023-05-13T22:56:52.567Z,15.72
2023-05-13T23:01:53.936Z,15.81
2023-05-13T23:06:55.338Z,15.64
2023-05-13T23:11:57.316Z,15.57
2023-05-13T23:16:58.735Z,15.49
2023-05-13T23:22:00.126Z,15.54
2023-05-13T23:27:01.465Z,15.23
2023-05-13T23:32:05.174Z,15.25
2023-05-13T23:37:09.758Z,15.28
2023-05-13T23:42:11.344Z,15.41
2023-05-13T23:47:13.436Z,15.35
2023-05-13T23:52:14.790Z,15.31
2023-05-13T23:57:16.169Z,14.93
